createdAt,value
2019-03-19T00:00:39.616Z,5.84
2019-03-19T00:01:20.856Z,5.83
2019-03-19T00:02:01.404Z,5.72
2019-03-19T00:02:41.982Z,5.76
2019-03-19T00:03:22.534Z,5.86
2019-03-19T00:04:03.129Z,5.83
2019-03-19T00:04:43.692Z,5.73
2019-03-19T00:05:24.268Z,5.83
2019-03-19T00:06:04.856Z,5.79
2019-03-19T00:06:45.420Z,5.79
2019-03-19T00:07:25.980Z,5.82
2019-03-19T00:08:06.561Z,5.75
2019-03-19T00:08:47.159Z,5.8
2019-03-19T00:09:27.763Z,5.83
2019-03-19T00:10:08.314Z,5.83
2019-03-19T00:10:48.948Z,5.82
2019-03-19T00:11:29.513Z,5.8
2019-03-19T00:12:10.068Z,5.79
2019-03-19T00:12:50.624Z,5.82
2019-03-19T00:13:31.191Z,5.75
2019-03-19T00:14:11.740Z,5.82
2019-03-19T00:14:52.316Z,5.73
2019-03-19T00:15:32.870Z,5.75
2019-03-19T00:16:13.411Z,5.75
2019-03-19T00:16:53.979Z,5.75
2019-03-19T00:17:34.547Z,5.73
2019-03-19T00:18:15.114Z,5.69
2019-03-19T00:18:55.683Z,5.72
2019-03-19T00:19:36.253Z,5.69
2019-03-19T00:20:16.804Z,5.72
2019-03-19T00:20:57.365Z,5.72
2019-03-19T00:21:37.947Z,5.64
2019-03-19T00:22:18.517Z,5.59
2019-03-19T00:22:59.078Z,5.65
2019-03-19T00:23:39.668Z,5.62
2019-03-19T00:24:20.209Z,5.65
2019-03-19T00:25:00.783Z,5.69
2019-03-19T00:25:41.345Z,5.71
2019-03-19T00:26:21.905Z,5.69
2019-03-19T00:27:02.479Z,5.71
2019-03-19T00:27:43.035Z,5.71
2019-03-19T00:28:23.589Z,5.69
2019-03-19T00:29:04.153Z,5.64
2019-03-19T00:29:44.718Z,5.69
2019-03-19T00:30:25.278Z,5.68
2019-03-19T00:31:05.860Z,5.66
2019-03-19T00:31:46.409Z,5.61
2019-03-19T00:32:26.969Z,5.62
2019-03-19T00:33:07.530Z,5.53
2019-03-19T00:33:48.093Z,5.66
2019-03-19T00:34:28.648Z,5.53
2019-03-19T00:35:09.202Z,5.54
2019-03-19T00:35:49.766Z,5.62
2019-03-19T00:36:30.335Z,5.54
2019-03-19T00:37:10.909Z,5.57
2019-03-19T00:37:51.479Z,5.62
2019-03-19T00:38:32.041Z,5.61
2019-03-19T00:39:12.597Z,5.59
2019-03-19T00:39:53.160Z,5.54
2019-03-19T00:40:33.734Z,5.57
2019-03-19T00:41:14.307Z,5.61
2019-03-19T00:41:54.871Z,5.64
2019-03-19T00:42:35.434Z,5.65
2019-03-19T00:43:16.001Z,5.68
2019-03-19T00:43:56.562Z,5.69
2019-03-19T00:44:37.127Z,5.69
2019-03-19T00:45:17.694Z,5.71
2019-03-19T00:45:58.250Z,5.64
2019-03-19T00:46:38.819Z,5.62
2019-03-19T00:47:19.411Z,5.64
2019-03-19T00:47:59.967Z,5.69
2019-03-19T00:48:40.528Z,5.66
2019-03-19T00:49:21.100Z,5.65
2019-03-19T00:50:01.671Z,5.66
2019-03-19T00:50:42.245Z,5.62
2019-03-19T00:51:22.806Z,5.69
2019-03-19T00:52:03.361Z,5.59
2019-03-19T00:52:43.930Z,5.64
2019-03-19T00:53:24.499Z,5.57
2019-03-19T00:54:05.057Z,5.5
2019-03-19T00:54:45.611Z,5.57
2019-03-19T00:55:26.176Z,5.5
2019-03-19T00:56:06.746Z,5.53
2019-03-19T00:56:47.290Z,5.54
2019-03-19T00:57:27.855Z,5.47
2019-03-19T00:58:08.415Z,5.44
2019-03-19T00:58:48.968Z,5.47
2019-03-19T00:59:29.529Z,5.48
2019-03-19T01:00:10.095Z,5.44
2019-03-19T01:00:50.657Z,5.39
2019-03-19T01:01:31.207Z,5.56
2019-03-19T01:02:11.754Z,5.47
2019-03-19T01:02:52.362Z,5.47
2019-03-19T01:03:32.944Z,5.39
2019-03-19T01:04:13.504Z,5.54
2019-03-19T01:04:54.067Z,5.43
2019-03-19T01:05:34.630Z,5.39
2019-03-19T01:06:15.185Z,5.43
2019-03-19T01:06:55.754Z,5.53
2019-03-19T01:07:36.337Z,5.41
2019-03-19T01:08:16.898Z,5.38
2019-03-19T01:08:57.460Z,5.47
2019-03-19T01:09:38.076Z,5.39
2019-03-19T01:10:18.662Z,5.44
2019-03-19T01:10:59.220Z,5.48
2019-03-19T01:11:39.785Z,5.44
2019-03-19T01:12:20.346Z,5.36
2019-03-19T01:13:00.911Z,5.39
2019-03-19T01:13:41.473Z,5.33
2019-03-19T01:14:22.049Z,5.36
2019-03-19T01:15:02.611Z,5.39
2019-03-19T01:15:43.180Z,5.54
2019-03-19T01:16:23.755Z,5.44
2019-03-19T01:17:04.308Z,5.38
2019-03-19T01:17:44.858Z,5.44
2019-03-19T01:18:25.424Z,5.38
2019-03-19T01:19:05.991Z,5.41
2019-03-19T01:19:46.554Z,5.36
2019-03-19T01:20:27.118Z,5.39
2019-03-19T01:21:07.679Z,5.41
2019-03-19T01:21:48.258Z,5.35
2019-03-19T01:22:28.821Z,5.43
2019-03-19T01:23:09.377Z,5.39
2019-03-19T01:23:49.925Z,5.38
2019-03-19T01:24:30.490Z,5.44
2019-03-19T01:25:11.049Z,5.53
2019-03-19T01:25:55.408Z,5.5
2019-03-19T01:26:32.176Z,5.48
2019-03-19T01:27:12.742Z,5.44
2019-03-19T01:27:53.295Z,5.43
2019-03-19T01:28:33.853Z,5.5
2019-03-19T01:29:14.412Z,5.44
2019-03-19T01:29:54.970Z,5.38
2019-03-19T01:30:35.551Z,5.43
2019-03-19T01:31:16.107Z,5.41
2019-03-19T01:31:56.684Z,5.44
2019-03-19T01:32:37.300Z,5.46
2019-03-19T01:33:17.852Z,5.44
2019-03-19T01:33:58.458Z,5.43
2019-03-19T01:34:39.014Z,5.38
2019-03-19T01:35:19.586Z,5.41
2019-03-19T01:36:00.135Z,5.48
2019-03-19T01:36:40.706Z,5.38
2019-03-19T01:37:21.275Z,5.47
2019-03-19T01:38:01.838Z,5.41
2019-03-19T01:38:42.404Z,5.36
2019-03-19T01:39:22.968Z,5.53
2019-03-19T01:40:03.523Z,5.56
2019-03-19T01:40:44.101Z,5.54
2019-03-19T01:41:24.681Z,5.51
2019-03-19T01:42:05.247Z,5.62
2019-03-19T01:42:45.815Z,5.62
2019-03-19T01:43:26.378Z,5.65
2019-03-19T01:44:06.938Z,5.66
2019-03-19T01:44:47.530Z,5.66
2019-03-19T01:45:28.091Z,5.62
2019-03-19T01:46:08.657Z,5.5
2019-03-19T01:46:49.211Z,5.51
2019-03-19T01:47:29.773Z,5.65
2019-03-19T01:48:10.381Z,5.65
2019-03-19T01:48:50.905Z,5.56
2019-03-19T01:49:31.469Z,5.61
2019-03-19T01:50:12.826Z,5.64
2019-03-19T01:50:53.402Z,5.68
2019-03-19T01:51:33.953Z,5.69
2019-03-19T01:52:14.517Z,5.72
2019-03-19T01:52:55.074Z,5.66
2019-03-19T01:53:35.645Z,5.68
2019-03-19T01:54:16.203Z,5.71
2019-03-19T01:54:56.765Z,5.73
2019-03-19T01:55:37.324Z,5.72
2019-03-19T01:56:18.534Z,5.73
2019-03-19T01:56:59.092Z,5.8
2019-03-19T01:57:39.657Z,5.75
2019-03-19T01:58:20.215Z,5.8
2019-03-19T01:59:00.783Z,5.76
2019-03-19T01:59:41.343Z,5.8
2019-03-19T02:00:21.896Z,5.75
2019-03-19T02:01:02.515Z,5.8
2019-03-19T02:01:43.085Z,5.82
2019-03-19T02:02:23.749Z,5.87
2019-03-19T02:03:04.348Z,5.87
2019-03-19T02:03:45.069Z,5.9
2019-03-19T02:04:25.604Z,5.84
2019-03-19T02:05:06.170Z,5.82
2019-03-19T02:05:46.734Z,5.89
2019-03-19T02:06:27.303Z,5.82
2019-03-19T02:07:07.859Z,5.91
2019-03-19T02:07:48.425Z,5.91
2019-03-19T02:08:28.989Z,5.9
2019-03-19T02:09:09.551Z,5.84
2019-03-19T02:09:50.114Z,5.87
2019-03-19T02:10:30.678Z,5.79
2019-03-19T02:11:11.237Z,5.76
2019-03-19T02:11:51.798Z,5.84
2019-03-19T02:12:32.357Z,5.75
2019-03-19T02:13:12.922Z,5.82
2019-03-19T02:13:53.491Z,5.75
2019-03-19T02:14:34.075Z,5.71
2019-03-19T02:15:14.640Z,5.69
2019-03-19T02:15:55.187Z,5.69
2019-03-19T02:16:35.751Z,5.69
2019-03-19T02:17:16.325Z,5.68
2019-03-19T02:17:56.893Z,5.71
2019-03-19T02:18:37.469Z,5.72
2019-03-19T02:19:18.061Z,5.68
2019-03-19T02:19:58.614Z,5.69
2019-03-19T02:20:39.186Z,5.71
2019-03-19T02:21:19.742Z,5.71
2019-03-19T02:22:00.306Z,5.65
2019-03-19T02:22:40.861Z,5.75
2019-03-19T02:23:21.431Z,5.66
2019-03-19T02:24:02.013Z,5.68
2019-03-19T02:24:42.571Z,5.69
2019-03-19T02:25:23.169Z,5.69
2019-03-19T02:26:03.727Z,5.71
2019-03-19T02:26:44.288Z,5.71
2019-03-19T02:27:24.861Z,5.65
2019-03-19T02:28:05.417Z,5.69
2019-03-19T02:28:45.972Z,5.73
2019-03-19T02:29:26.531Z,5.8
2019-03-19T02:30:07.868Z,5.73
2019-03-19T02:30:48.434Z,5.71
2019-03-19T02:31:28.982Z,5.75
2019-03-19T02:32:09.555Z,5.76
2019-03-19T02:32:50.111Z,5.8
2019-03-19T02:33:30.669Z,5.8
2019-03-19T02:34:11.224Z,5.83
2019-03-19T02:34:51.783Z,5.76
2019-03-19T02:35:32.358Z,5.76
2019-03-19T02:36:12.913Z,5.72
2019-03-19T02:36:53.486Z,5.75
2019-03-19T02:37:34.039Z,5.71
2019-03-19T02:38:14.606Z,5.73
2019-03-19T02:38:55.175Z,5.73
2019-03-19T02:39:35.719Z,5.75
2019-03-19T02:40:16.309Z,5.73
2019-03-19T02:40:56.875Z,5.66
2019-03-19T02:41:37.461Z,5.72
2019-03-19T02:42:18.024Z,5.69
2019-03-19T02:42:58.583Z,5.73
2019-03-19T02:43:39.137Z,5.71
2019-03-19T02:44:19.706Z,5.71
2019-03-19T02:45:00.496Z,5.72
2019-03-19T02:45:40.839Z,5.72
2019-03-19T02:46:21.404Z,5.83
2019-03-19T02:47:01.967Z,5.72
2019-03-19T02:47:42.542Z,5.71
2019-03-19T02:48:23.084Z,5.82
2019-03-19T02:49:03.639Z,5.71
2019-03-19T02:49:44.219Z,5.71
2019-03-19T02:50:24.794Z,5.76
2019-03-19T02:51:05.351Z,5.71
2019-03-19T02:51:45.908Z,5.69
2019-03-19T02:52:26.478Z,5.66
2019-03-19T02:53:07.042Z,5.72
2019-03-19T02:53:47.610Z,5.73
2019-03-19T02:54:28.185Z,5.65
2019-03-19T02:55:08.775Z,5.71
2019-03-19T02:55:49.319Z,5.62
2019-03-19T02:56:32.930Z,5.68
2019-03-19T02:57:11.186Z,5.64
2019-03-19T02:57:51.730Z,5.66
2019-03-19T02:58:32.288Z,5.54
2019-03-19T02:59:12.864Z,5.54
2019-03-19T02:59:53.418Z,5.53
2019-03-19T03:00:33.997Z,5.46
2019-03-19T03:01:14.562Z,5.46
2019-03-19T03:01:55.131Z,5.44
2019-03-19T03:02:35.703Z,5.38
2019-03-19T03:03:16.281Z,5.38
2019-03-19T03:03:56.874Z,5.36
2019-03-19T03:04:37.454Z,5.43
2019-03-19T03:05:17.985Z,5.38
2019-03-19T03:05:58.543Z,5.39
2019-03-19T03:06:39.136Z,5.41
2019-03-19T03:07:19.699Z,5.43
2019-03-19T03:08:00.262Z,5.41
2019-03-19T03:08:40.837Z,5.33
2019-03-19T03:09:21.407Z,5.35
2019-03-19T03:10:02.006Z,5.38
2019-03-19T03:10:42.560Z,5.3
2019-03-19T03:11:23.119Z,5.35
2019-03-19T03:12:03.684Z,5.3
2019-03-19T03:12:44.235Z,5.29
2019-03-19T03:13:24.803Z,5.33
2019-03-19T03:14:05.362Z,5.36
2019-03-19T03:14:46.322Z,5.38
2019-03-19T03:15:26.475Z,5.43
2019-03-19T03:16:07.038Z,5.39
2019-03-19T03:16:47.615Z,5.41
2019-03-19T03:17:28.209Z,5.41
2019-03-19T03:18:08.725Z,5.33
2019-03-19T03:18:49.297Z,5.41
2019-03-19T03:19:29.847Z,5.44
2019-03-19T03:20:10.398Z,5.47
2019-03-19T03:20:50.953Z,5.47
2019-03-19T03:21:34.545Z,5.39
2019-03-19T03:22:12.076Z,5.39
2019-03-19T03:22:52.662Z,5.43
2019-03-19T03:23:33.233Z,5.36
2019-03-19T03:24:13.791Z,5.32
2019-03-19T03:24:54.393Z,5.46
2019-03-19T03:25:34.982Z,5.43
2019-03-19T03:26:15.546Z,5.43
2019-03-19T03:26:56.095Z,5.43
2019-03-19T03:27:36.635Z,5.46
2019-03-19T03:28:17.205Z,5.41
2019-03-19T03:28:57.753Z,5.48
2019-03-19T03:29:38.299Z,5.48
2019-03-19T03:30:18.876Z,5.44
2019-03-19T03:30:59.432Z,5.41
2019-03-19T03:31:39.985Z,5.36
2019-03-19T03:32:20.540Z,5.48
2019-03-19T03:33:01.097Z,5.33
2019-03-19T03:33:41.657Z,5.48
2019-03-19T03:34:22.217Z,5.48
2019-03-19T03:35:02.811Z,5.33
2019-03-19T03:35:43.353Z,5.43
2019-03-19T03:36:23.912Z,5.43
2019-03-19T03:37:04.463Z,5.29
2019-03-19T03:37:45.028Z,5.36
2019-03-19T03:38:25.593Z,5.32
2019-03-19T03:39:06.152Z,5.36
2019-03-19T03:39:46.737Z,5.41
2019-03-19T03:40:27.294Z,5.38
2019-03-19T03:41:07.848Z,5.36
2019-03-19T03:41:48.413Z,5.32
2019-03-19T03:42:28.967Z,5.28
2019-03-19T03:43:09.523Z,5.35
2019-03-19T03:43:50.072Z,5.33
2019-03-19T03:44:30.647Z,5.29
2019-03-19T03:45:11.195Z,5.36
2019-03-19T03:45:51.767Z,5.32
2019-03-19T03:46:32.343Z,5.33
2019-03-19T03:47:12.910Z,5.29
2019-03-19T03:47:53.464Z,5.32
2019-03-19T03:48:34.018Z,5.33
2019-03-19T03:49:14.607Z,5.36
2019-03-19T03:49:55.171Z,5.29
2019-03-19T03:50:35.741Z,5.33
2019-03-19T03:51:16.295Z,5.3
2019-03-19T03:51:56.873Z,5.29
2019-03-19T03:52:37.447Z,5.29
2019-03-19T03:53:18.017Z,5.28
2019-03-19T03:53:58.625Z,5.28
2019-03-19T03:54:39.301Z,5.3
2019-03-19T03:55:19.781Z,5.3
2019-03-19T03:56:00.329Z,5.28
2019-03-19T03:56:41.370Z,5.28
2019-03-19T03:57:21.934Z,5.29
2019-03-19T03:58:02.502Z,5.33
2019-03-19T03:58:43.072Z,5.33
2019-03-19T03:59:23.616Z,5.3
2019-03-19T04:00:04.207Z,5.3
2019-03-19T04:00:44.756Z,5.35
2019-03-19T04:01:25.315Z,5.36
2019-03-19T04:02:05.899Z,5.3
2019-03-19T04:02:46.458Z,5.3
2019-03-19T04:03:27.017Z,5.33
2019-03-19T04:04:07.579Z,5.35
2019-03-19T04:04:48.141Z,5.32
2019-03-19T04:05:28.705Z,5.3
2019-03-19T04:06:09.288Z,5.38
2019-03-19T04:06:49.806Z,5.32
2019-03-19T04:07:30.362Z,5.28
2019-03-19T04:08:10.944Z,5.28
2019-03-19T04:08:51.518Z,5.29
2019-03-19T04:09:32.085Z,5.33
2019-03-19T04:10:12.672Z,5.3
2019-03-19T04:10:53.230Z,5.26
2019-03-19T04:11:33.808Z,5.21
2019-03-19T04:12:14.363Z,5.26
2019-03-19T04:12:54.965Z,5.29
2019-03-19T04:13:35.527Z,5.32
2019-03-19T04:14:16.086Z,5.3
2019-03-19T04:14:56.640Z,5.3
2019-03-19T04:15:37.197Z,5.33
2019-03-19T04:16:17.769Z,5.36
2019-03-19T04:16:58.343Z,5.36
2019-03-19T04:17:38.895Z,5.39
2019-03-19T04:18:19.444Z,5.41
2019-03-19T04:19:00.017Z,5.38
2019-03-19T04:19:40.585Z,5.41
2019-03-19T04:20:21.154Z,5.39
2019-03-19T04:21:01.706Z,5.41
2019-03-19T04:21:42.279Z,5.47
2019-03-19T04:22:22.841Z,5.41
2019-03-19T04:23:03.402Z,5.39
2019-03-19T04:23:43.987Z,5.46
2019-03-19T04:24:24.542Z,5.38
2019-03-19T04:25:05.105Z,5.48
2019-03-19T04:25:45.679Z,5.36
2019-03-19T04:26:26.264Z,5.35
2019-03-19T04:27:15.634Z,5.39
2019-03-19T04:27:47.400Z,5.47
2019-03-19T04:28:27.950Z,5.54
2019-03-19T04:29:08.503Z,5.36
2019-03-19T04:29:49.062Z,5.43
2019-03-19T04:30:29.623Z,5.44
2019-03-19T04:31:10.177Z,5.39
2019-03-19T04:31:50.726Z,5.39
2019-03-19T04:32:31.292Z,5.43
2019-03-19T04:33:11.852Z,5.44
2019-03-19T04:33:52.390Z,5.41
2019-03-19T04:34:32.956Z,5.44
2019-03-19T04:35:13.520Z,5.38
2019-03-19T04:35:54.080Z,5.38
2019-03-19T04:36:34.644Z,5.41
2019-03-19T04:37:15.221Z,5.39
2019-03-19T04:37:55.785Z,5.5
2019-03-19T04:38:36.363Z,5.41
2019-03-19T04:39:16.934Z,5.39
2019-03-19T04:39:57.492Z,5.38
2019-03-19T04:40:38.055Z,5.46
2019-03-19T04:41:18.652Z,5.36
2019-03-19T04:41:59.230Z,5.36
2019-03-19T04:42:39.781Z,5.38
2019-03-19T04:43:20.368Z,5.41
2019-03-19T04:44:00.952Z,5.39
2019-03-19T04:44:41.522Z,5.43
2019-03-19T04:45:22.086Z,5.36
2019-03-19T04:46:02.687Z,5.43
2019-03-19T04:46:43.339Z,5.44
2019-03-19T04:47:23.929Z,5.36
2019-03-19T04:48:04.492Z,5.38
2019-03-19T04:48:45.060Z,5.39
2019-03-19T04:49:25.617Z,5.41
2019-03-19T04:50:06.247Z,5.35
2019-03-19T04:50:46.827Z,5.48
2019-03-19T04:51:27.461Z,5.41
2019-03-19T04:52:08.051Z,5.38
2019-03-19T04:52:48.589Z,5.39
2019-03-19T04:53:29.155Z,5.38
2019-03-19T04:54:09.732Z,5.38
2019-03-19T04:54:50.323Z,5.5
2019-03-19T04:55:30.913Z,5.5
2019-03-19T04:56:11.516Z,5.5
2019-03-19T04:56:52.079Z,5.48
2019-03-19T04:57:32.657Z,5.53
2019-03-19T04:58:13.234Z,5.41
2019-03-19T04:58:53.790Z,5.51
2019-03-19T04:59:34.347Z,5.53
2019-03-19T05:00:14.903Z,5.48
2019-03-19T05:00:55.468Z,5.5
2019-03-19T05:01:36.019Z,5.5
2019-03-19T05:02:16.608Z,5.5
2019-03-19T05:02:57.200Z,5.57
2019-03-19T05:03:37.841Z,5.64
2019-03-19T05:04:18.428Z,5.68
2019-03-19T05:04:58.978Z,5.57
2019-03-19T05:05:39.542Z,5.57
2019-03-19T05:06:20.098Z,5.64
2019-03-19T05:07:00.656Z,5.59
2019-03-19T05:07:41.232Z,5.66
2019-03-19T05:08:22.006Z,5.61
2019-03-19T05:09:02.596Z,5.65
2019-03-19T05:09:43.130Z,5.59
2019-03-19T05:10:23.713Z,5.69
2019-03-19T05:11:04.296Z,5.65
2019-03-19T05:11:44.881Z,5.71
2019-03-19T05:12:25.526Z,5.64
2019-03-19T05:13:06.048Z,5.73
2019-03-19T05:13:46.632Z,5.89
2019-03-19T05:14:27.175Z,5.91
2019-03-19T05:15:07.730Z,6.19
2019-03-19T05:15:48.340Z,6.3
2019-03-19T05:16:28.933Z,6.46
2019-03-19T05:17:09.519Z,6.44
2019-03-19T05:17:50.094Z,6.44
2019-03-19T05:18:31.450Z,6.36
2019-03-19T05:19:11.258Z,6.44
2019-03-19T05:19:51.810Z,6.33
2019-03-19T05:20:32.368Z,6.28
2019-03-19T05:21:12.936Z,6.24
2019-03-19T05:21:53.519Z,6.14
2019-03-19T05:22:34.110Z,6.12
2019-03-19T05:23:14.643Z,6.02
2019-03-19T05:23:55.196Z,6.12
2019-03-19T05:24:35.771Z,6.11
2019-03-19T05:25:16.332Z,5.98
2019-03-19T05:25:57.791Z,5.9
2019-03-19T05:26:38.369Z,5.97
2019-03-19T05:27:18.931Z,5.9
2019-03-19T05:27:59.499Z,5.82
2019-03-19T05:28:40.077Z,5.87
2019-03-19T05:29:20.636Z,5.73
2019-03-19T05:30:01.197Z,5.71
2019-03-19T05:30:41.773Z,5.72
2019-03-19T05:31:22.310Z,5.71
2019-03-19T05:32:02.863Z,5.66
2019-03-19T05:32:43.433Z,5.73
2019-03-19T05:33:23.999Z,5.72
2019-03-19T05:34:04.581Z,5.68
2019-03-19T05:34:45.335Z,5.66
2019-03-19T05:35:26.214Z,5.71
2019-03-19T05:36:07.030Z,5.68
2019-03-19T05:36:48.081Z,5.68
2019-03-19T05:37:29.053Z,5.66
2019-03-19T05:38:10.014Z,5.62
2019-03-19T05:38:50.782Z,5.66
2019-03-19T05:39:31.588Z,5.57
2019-03-19T05:40:12.456Z,5.71
2019-03-19T05:40:53.309Z,5.62
2019-03-19T05:41:34.372Z,5.71
2019-03-19T05:42:15.410Z,5.68
2019-03-19T05:42:56.241Z,5.75
2019-03-19T05:43:37.228Z,5.72
2019-03-19T05:44:18.222Z,5.76
2019-03-19T05:44:59.219Z,5.73
2019-03-19T05:45:40.222Z,5.75
2019-03-19T05:46:21.330Z,5.73
2019-03-19T05:47:02.285Z,5.71
2019-03-19T05:47:43.403Z,5.71
2019-03-19T05:48:24.622Z,5.84
2019-03-19T05:49:05.637Z,5.75
2019-03-19T05:49:46.638Z,5.75
2019-03-19T05:50:27.749Z,5.73
2019-03-19T05:51:08.764Z,5.8
2019-03-19T05:51:49.689Z,5.75
2019-03-19T05:52:30.706Z,5.82
2019-03-19T05:53:11.749Z,5.76
2019-03-19T05:53:52.626Z,5.84
2019-03-19T05:54:33.681Z,5.72
2019-03-19T05:55:14.473Z,5.8
2019-03-19T05:55:55.217Z,5.79
2019-03-19T05:56:36.294Z,5.75
2019-03-19T05:57:17.071Z,5.79
2019-03-19T05:57:57.971Z,5.8
2019-03-19T05:58:38.954Z,5.87
2019-03-19T05:59:19.812Z,5.79
2019-03-19T06:00:00.688Z,5.76
2019-03-19T06:00:41.658Z,5.82
2019-03-19T06:01:22.430Z,5.76
2019-03-19T06:02:03.177Z,5.86
2019-03-19T06:02:43.844Z,5.82
2019-03-19T06:03:24.697Z,5.79
2019-03-19T06:04:05.719Z,5.86
2019-03-19T06:04:46.812Z,5.9
2019-03-19T06:05:27.841Z,5.91
2019-03-19T06:06:08.727Z,5.91
2019-03-19T06:06:49.623Z,5.97
2019-03-19T06:07:30.677Z,5.94
2019-03-19T06:08:11.643Z,5.83
2019-03-19T06:08:52.683Z,5.91
2019-03-19T06:09:33.695Z,5.97
2019-03-19T06:10:14.876Z,5.97
2019-03-19T06:10:55.720Z,5.97
2019-03-19T06:11:36.818Z,5.97
2019-03-19T06:12:17.961Z,5.91
2019-03-19T06:12:59.030Z,5.97
2019-03-19T06:13:39.953Z,5.97
2019-03-19T06:14:20.733Z,5.98
2019-03-19T06:15:01.616Z,5.91
2019-03-19T06:15:42.293Z,5.9
2019-03-19T06:16:22.883Z,5.93
2019-03-19T06:17:03.447Z,5.91
2019-03-19T06:17:44.002Z,5.97
2019-03-19T06:18:34.486Z,5.94
2019-03-19T06:19:05.142Z,5.97
2019-03-19T06:19:45.694Z,5.91
2019-03-19T06:20:26.254Z,5.99
2019-03-19T06:21:06.838Z,5.87
2019-03-19T06:21:47.523Z,5.9
2019-03-19T06:22:28.118Z,5.94
2019-03-19T06:23:08.677Z,6.01
2019-03-19T06:23:49.240Z,6.04
2019-03-19T06:24:29.798Z,6.01
2019-03-19T06:25:10.370Z,6.01
2019-03-19T06:25:50.919Z,6.05
2019-03-19T06:26:31.512Z,5.99
2019-03-19T06:27:12.054Z,5.94
2019-03-19T06:28:00.082Z,6.08
2019-03-19T06:28:35.442Z,6.35
2019-03-19T06:29:13.735Z,6.52
2019-03-19T06:29:54.365Z,6.75
2019-03-19T06:30:34.944Z,6.96
2019-03-19T06:31:15.554Z,7.2
2019-03-19T06:31:56.158Z,7.32
2019-03-19T06:32:36.745Z,7.57
2019-03-19T06:33:17.314Z,7.69
2019-03-19T06:33:57.884Z,7.91
2019-03-19T06:34:38.547Z,8.15
2019-03-19T06:35:19.127Z,8.33
2019-03-19T06:35:59.692Z,8.38
2019-03-19T06:36:40.282Z,8.49
2019-03-19T06:37:20.845Z,8.64
2019-03-19T06:38:01.411Z,8.71
2019-03-19T06:38:41.982Z,8.89
2019-03-19T06:39:22.552Z,8.94
2019-03-19T06:40:03.189Z,8.95
2019-03-19T06:40:43.749Z,8.92
2019-03-19T06:41:24.319Z,9.1
2019-03-19T06:42:04.873Z,9.18
2019-03-19T06:42:45.499Z,9.23
2019-03-19T06:43:26.081Z,9.26
2019-03-19T06:44:06.647Z,9.36
2019-03-19T06:44:47.267Z,9.36
2019-03-19T06:45:27.886Z,9.41
2019-03-19T06:46:08.458Z,9.43
2019-03-19T06:46:49.019Z,9.48
2019-03-19T06:47:29.821Z,9.54
2019-03-19T06:48:10.464Z,9.65
2019-03-19T06:48:51.024Z,9.62
2019-03-19T06:49:31.990Z,9.64
2019-03-19T06:50:12.676Z,9.77
2019-03-19T06:50:53.283Z,9.89
2019-03-19T06:51:33.854Z,9.89
2019-03-19T06:52:14.421Z,10.02
2019-03-19T06:52:54.991Z,9.97
2019-03-19T06:53:35.550Z,10.04
2019-03-19T06:54:16.281Z,10.2
2019-03-19T06:54:56.851Z,10.28
2019-03-19T06:55:37.511Z,10.15
2019-03-19T06:56:18.109Z,10.07
2019-03-19T06:56:58.712Z,9.82
2019-03-19T06:57:39.683Z,9.8
2019-03-19T06:58:19.911Z,9.5
2019-03-19T06:59:00.599Z,9.32
2019-03-19T06:59:41.294Z,9.21
2019-03-19T07:00:21.896Z,9.06
2019-03-19T07:01:02.503Z,8.88
2019-03-19T07:01:43.051Z,8.74
2019-03-19T07:02:23.651Z,8.63
2019-03-19T07:03:04.209Z,8.48
2019-03-19T07:03:44.854Z,8.42
2019-03-19T07:04:25.404Z,8.31
2019-03-19T07:05:06.069Z,8.19
2019-03-19T07:05:46.686Z,8.15
2019-03-19T07:06:27.316Z,8.06
2019-03-19T07:07:08.107Z,7.9
2019-03-19T07:07:48.769Z,7.9
2019-03-19T07:08:29.478Z,7.8
2019-03-19T07:09:10.182Z,7.87
2019-03-19T07:09:50.911Z,7.77
2019-03-19T07:10:31.527Z,7.76
2019-03-19T07:11:12.091Z,7.77
2019-03-19T07:11:52.675Z,7.76
2019-03-19T07:12:33.262Z,7.75
2019-03-19T07:13:13.837Z,7.75
2019-03-19T07:13:54.431Z,7.75
2019-03-19T07:14:35.073Z,7.72
2019-03-19T07:15:15.713Z,7.72
2019-03-19T07:15:56.386Z,7.66
2019-03-19T07:16:37.140Z,7.69
2019-03-19T07:17:17.799Z,7.75
2019-03-19T07:17:58.584Z,7.66
2019-03-19T07:18:39.348Z,7.63
2019-03-19T07:19:20.225Z,7.58
2019-03-19T07:20:00.902Z,7.56
2019-03-19T07:20:41.724Z,7.5
2019-03-19T07:21:22.283Z,7.43
2019-03-19T07:22:02.927Z,7.33
2019-03-19T07:22:43.560Z,7.35
2019-03-19T07:23:24.362Z,7.4
2019-03-19T07:24:04.960Z,7.42
2019-03-19T07:24:47.886Z,7.4
2019-03-19T07:25:26.169Z,7.39
2019-03-19T07:26:07.384Z,7.32
2019-03-19T07:26:47.978Z,7.32
2019-03-19T07:27:28.563Z,7.31
2019-03-19T07:28:09.121Z,7.33
2019-03-19T07:28:49.695Z,7.38
2019-03-19T07:29:30.476Z,7.36
2019-03-19T07:30:11.057Z,7.31
2019-03-19T07:30:51.629Z,7.31
2019-03-19T07:31:32.189Z,7.17
2019-03-19T07:32:12.757Z,7.25
2019-03-19T07:32:53.332Z,7.21
2019-03-19T07:33:33.908Z,7.02
2019-03-19T07:34:14.464Z,7.03
2019-03-19T07:34:55.080Z,7.02
2019-03-19T07:35:35.673Z,6.96
2019-03-19T07:36:16.321Z,7
2019-03-19T07:36:56.803Z,6.96
2019-03-19T07:37:37.365Z,7
2019-03-19T07:38:17.937Z,7.07
2019-03-19T07:38:58.495Z,6.97
2019-03-19T07:39:39.075Z,7.07
2019-03-19T07:40:19.630Z,7.11
2019-03-19T07:41:00.213Z,7.05
2019-03-19T07:41:40.774Z,7.13
2019-03-19T07:42:21.348Z,7.15
2019-03-19T07:43:01.928Z,7.17
2019-03-19T07:43:42.511Z,7.28
2019-03-19T07:44:23.077Z,7.17
2019-03-19T07:45:03.688Z,7.28
2019-03-19T07:45:44.272Z,7.35
2019-03-19T07:46:24.875Z,7.36
2019-03-19T07:47:05.441Z,7.32
2019-03-19T07:47:45.996Z,7.39
2019-03-19T07:48:26.561Z,7.33
2019-03-19T07:49:07.118Z,7.35
2019-03-19T07:49:47.741Z,7.35
2019-03-19T07:50:28.319Z,7.32
2019-03-19T07:51:08.861Z,7.36
2019-03-19T07:51:49.440Z,7.35
2019-03-19T07:52:30.008Z,7.42
2019-03-19T07:53:11.974Z,7.43
2019-03-19T07:53:52.556Z,7.45
2019-03-19T07:56:42.365Z,7.51
2019-03-19T07:57:22.927Z,7.6
2019-03-19T07:58:03.492Z,7.88
2019-03-19T07:58:45.365Z,8.05
2019-03-19T07:59:24.625Z,8.23
2019-03-19T08:00:08.379Z,8.48
2019-03-19T08:00:49.607Z,8.6
2019-03-19T08:01:30.164Z,8.73
2019-03-19T08:02:12.770Z,8.81
2019-03-19T08:02:54.040Z,8.89
2019-03-19T08:03:34.053Z,8.94
2019-03-19T08:04:14.624Z,8.91
2019-03-19T08:04:55.573Z,8.91
2019-03-19T08:05:36.127Z,8.91
2019-03-19T08:06:16.684Z,8.89
2019-03-19T08:06:57.248Z,8.88
2019-03-19T08:07:37.798Z,8.88
2019-03-19T08:08:18.361Z,8.73
2019-03-19T08:08:59.074Z,8.73
2019-03-19T08:09:39.984Z,8.66
2019-03-19T08:10:20.463Z,8.64
2019-03-19T08:11:01.056Z,8.66
2019-03-19T08:11:41.609Z,8.66
2019-03-19T08:12:22.713Z,8.64
2019-03-19T08:13:03.285Z,8.66
2019-03-19T08:13:43.870Z,8.7
2019-03-19T08:14:24.435Z,8.78
2019-03-19T08:15:04.992Z,8.71
2019-03-19T08:15:45.549Z,8.74
2019-03-19T08:16:27.490Z,8.88
2019-03-19T08:17:06.705Z,8.99
2019-03-19T08:17:47.259Z,8.97
2019-03-19T08:18:27.850Z,9.23
2019-03-19T08:19:08.408Z,9.47
2019-03-19T08:19:49.006Z,9.62
2019-03-19T08:20:29.541Z,9.65
2019-03-19T08:21:10.105Z,9.72
2019-03-19T08:21:50.808Z,9.73
2019-03-19T08:22:31.563Z,9.76
2019-03-19T08:23:12.219Z,9.95
2019-03-19T08:23:53.046Z,10.04
2019-03-19T08:24:33.641Z,10.04
2019-03-19T08:25:14.407Z,10.04
2019-03-19T08:25:54.964Z,9.95
2019-03-19T08:26:35.567Z,10.01
2019-03-19T08:27:16.170Z,9.94
2019-03-19T08:27:56.740Z,9.84
2019-03-19T08:28:37.295Z,9.76
2019-03-19T08:29:17.892Z,9.72
2019-03-19T08:29:58.459Z,9.76
2019-03-19T08:30:39.040Z,9.77
2019-03-19T08:31:19.752Z,9.68
2019-03-19T08:32:00.328Z,9.58
2019-03-19T08:32:40.890Z,9.44
2019-03-19T08:33:21.466Z,9.36
2019-03-19T08:34:02.027Z,9.36
2019-03-19T08:34:42.603Z,9.41
2019-03-19T08:35:23.179Z,9.46
2019-03-19T08:36:09.144Z,9.54
2019-03-19T08:36:44.314Z,9.55
2019-03-19T08:37:24.876Z,9.55
2019-03-19T08:38:05.445Z,9.47
2019-03-19T08:38:46.023Z,9.39
2019-03-19T08:39:26.585Z,9.37
2019-03-19T08:40:07.160Z,9.29
2019-03-19T08:40:47.709Z,9.19
2019-03-19T08:41:28.272Z,9.19
2019-03-19T08:42:08.859Z,9.08
2019-03-19T08:42:49.459Z,9.11
2019-03-19T08:43:30.015Z,9.02
2019-03-19T08:44:10.581Z,9.08
2019-03-19T08:44:51.137Z,8.92
2019-03-19T08:45:31.731Z,9.02
2019-03-19T08:46:12.307Z,9.03
2019-03-19T08:46:52.889Z,8.99
2019-03-19T08:47:33.449Z,8.97
2019-03-19T08:48:14.052Z,9.21
2019-03-19T08:48:54.618Z,9.18
2019-03-19T08:49:35.198Z,9.21
2019-03-19T08:50:15.748Z,9.13
2019-03-19T08:50:56.310Z,8.91
2019-03-19T08:51:36.886Z,8.91
2019-03-19T08:52:17.519Z,8.89
2019-03-19T08:52:58.098Z,8.74
2019-03-19T08:53:38.667Z,8.73
2019-03-19T08:54:19.226Z,8.63
2019-03-19T08:54:59.798Z,8.63
2019-03-19T08:55:40.335Z,8.66
2019-03-19T08:56:20.919Z,8.74
2019-03-19T08:57:01.485Z,8.85
2019-03-19T08:57:42.039Z,8.94
2019-03-19T08:58:22.595Z,8.94
2019-03-19T08:59:05.923Z,9.1
2019-03-19T08:59:43.729Z,9
2019-03-19T09:00:24.315Z,9.02
2019-03-19T09:01:04.882Z,9.1
2019-03-19T09:01:47.330Z,8.94
2019-03-19T09:02:26.016Z,8.91
2019-03-19T09:03:06.575Z,8.87
2019-03-19T09:03:47.162Z,8.89
2019-03-19T09:04:27.721Z,8.81